createdAt,value
2019-01-25T00:02:09.331Z,101.07
2019-01-25T00:04:45.527Z,102.03
2019-01-25T00:07:22.242Z,101.07
2019-01-25T00:09:59.032Z,97.63
2019-01-25T00:12:35.999Z,96.00
2019-01-25T00:15:12.884Z,96.53
2019-01-25T00:17:50.399Z,94.93
2019-01-25T00:20:27.902Z,94.37
2019-01-25T00:23:05.032Z,99.07
2019-01-25T00:25:41.917Z,90.33
2019-01-25T00:28:19.081Z,109.17
2019-01-25T00:30:55.551Z,105.10
2019-01-25T00:33:32.312Z,88.73
2019-01-25T00:36:09.334Z,86.30
2019-01-25T00:38:46.348Z,85.27
2019-01-25T00:41:22.894Z,76.73
2019-01-25T00:43:59.615Z,76.07
2019-01-25T00:46:36.074Z,80.03
2019-01-25T00:49:12.967Z,82.23
2019-01-25T00:51:49.599Z,84.90
2019-01-25T00:54:26.584Z,85.73
2019-01-25T00:57:04.484Z,84.10
2019-01-25T00:59:41.559Z,84.97
2019-01-25T01:02:18.372Z,86.43
2019-01-25T01:04:55.375Z,88.42
2019-01-25T01:07:32.017Z,91.08
2019-01-25T01:10:14.027Z,94.85
2019-01-25T01:12:47.266Z,92.15
2019-01-25T01:15:24.419Z,83.53
2019-01-25T01:18:00.762Z,78.90
2019-01-25T01:20:37.578Z,77.17
2019-01-25T01:23:14.240Z,75.75
2019-01-25T01:25:52.623Z,71.53
2019-01-25T01:28:30.417Z,62.25
2019-01-25T01:31:06.823Z,66.65
2019-01-25T01:33:43.601Z,65.00
2019-01-25T01:36:20.028Z,61.70
2019-01-25T01:38:57.059Z,53.37
2019-01-25T01:41:34.591Z,58.55
2019-01-25T01:44:11.320Z,49.88
2019-01-25T01:46:48.122Z,50.65
2019-01-25T01:49:25.034Z,45.48
2019-01-25T01:52:01.416Z,42.38
2019-01-25T01:54:38.325Z,42.50
2019-01-25T01:57:15.075Z,39.65
2019-01-25T01:59:51.794Z,41.30
2019-01-25T02:02:31.045Z,43.10
2019-01-25T02:05:08.113Z,41.60
2019-01-25T02:07:44.580Z,42.60
2019-01-25T02:10:29.202Z,41.37
2019-01-25T02:13:01.930Z,41.37
2019-01-25T02:15:40.838Z,40.95
2019-01-25T02:18:20.889Z,45.43
2019-01-25T02:21:01.136Z,41.53
2019-01-25T02:23:37.950Z,45.23
2019-01-25T02:26:15.693Z,56.13
2019-01-25T02:28:52.425Z,42.20
2019-01-25T02:31:29.121Z,37.93
2019-01-25T02:34:05.733Z,41.05
2019-01-25T02:36:43.747Z,37.17
2019-01-25T02:39:20.330Z,28.95
2019-01-25T02:41:57.212Z,28.90
2019-01-25T02:44:33.903Z,29.40
2019-01-25T02:47:12.781Z,28.92
2019-01-25T02:49:49.781Z,28.73
2019-01-25T02:52:26.663Z,30.72
2019-01-25T02:55:03.215Z,29.37
2019-01-25T02:57:39.996Z,31.05
2019-01-25T03:00:26.184Z,31.85
2019-01-25T03:03:02.951Z,31.15
2019-01-25T03:05:39.612Z,31.60
2019-01-25T03:08:16.164Z,32.05
2019-01-25T03:10:52.960Z,30.00
2019-01-25T03:13:29.230Z,30.92
2019-01-25T03:16:06.308Z,31.20
2019-01-25T03:18:42.673Z,28.87
2019-01-25T03:21:19.496Z,29.65
2019-01-25T03:23:55.906Z,29.67
2019-01-25T03:26:33.607Z,29.37
2019-01-25T03:29:10.353Z,27.98
2019-01-25T03:31:47.354Z,29.45
2019-01-25T03:34:23.975Z,27.52
2019-01-25T03:37:00.625Z,27.35
2019-01-25T03:39:37.648Z,25.85
2019-01-25T03:42:14.137Z,28.40
2019-01-25T03:44:50.727Z,27.05
2019-01-25T03:47:27.724Z,26.02
2019-01-25T03:50:04.951Z,26.20
2019-01-25T03:52:41.402Z,27.02
2019-01-25T03:55:19.209Z,24.63
2019-01-25T03:57:57.111Z,24.77
2019-01-25T04:00:34.861Z,23.47
2019-01-25T04:03:11.686Z,24.55
2019-01-25T04:05:48.206Z,24.87
2019-01-25T04:08:26.096Z,22.67
2019-01-25T04:11:03.989Z,22.95
2019-01-25T04:13:40.959Z,22.07
2019-01-25T04:16:17.614Z,23.60
2019-01-25T04:18:54.208Z,23.47
2019-01-25T04:21:31.022Z,22.50
2019-01-25T04:24:07.795Z,21.97
2019-01-25T04:26:44.355Z,20.80
2019-01-25T04:29:21.679Z,22.00
2019-01-25T04:31:58.451Z,21.33
2019-01-25T04:34:35.040Z,22.00
2019-01-25T04:37:12.182Z,21.42
2019-01-25T04:39:49.223Z,20.65
2019-01-25T04:42:26.753Z,21.23
2019-01-25T04:45:03.884Z,20.57
2019-01-25T04:47:40.540Z,20.57
2019-01-25T04:50:19.890Z,20.70
2019-01-25T04:52:56.734Z,19.62
2019-01-25T04:55:49.834Z,19.65
2019-01-25T04:58:26.943Z,19.10
2019-01-25T05:01:10.687Z,20.45
2019-01-25T05:03:47.550Z,20.23
2019-01-25T05:06:24.719Z,18.07
2019-01-25T05:09:01.170Z,18.27
2019-01-25T05:11:39.573Z,19.80
2019-01-25T05:14:16.264Z,19.07
2019-01-25T05:16:52.749Z,19.60
2019-01-25T05:19:29.136Z,18.52
2019-01-25T05:22:06.392Z,18.00
2019-01-25T05:24:43.229Z,18.73
2019-01-25T05:27:20.265Z,18.30
2019-01-25T05:29:58.680Z,19.10
2019-01-25T05:32:35.650Z,19.80
2019-01-25T05:35:12.499Z,18.95
2019-01-25T05:37:49.469Z,18.75
2019-01-25T05:40:27.639Z,18.70
2019-01-25T05:43:04.144Z,18.90
2019-01-25T05:45:46.378Z,19.62
2019-01-25T05:48:23.430Z,18.85
2019-01-25T05:51:04.216Z,18.42
2019-01-25T05:53:41.276Z,18.27
2019-01-25T05:56:18.108Z,18.73
2019-01-25T05:58:54.862Z,18.87
2019-01-25T06:01:31.555Z,18.12
2019-01-25T06:04:08.392Z,18.48
2019-01-25T06:06:45.128Z,18.05
2019-01-25T06:09:26.405Z,19.02
2019-01-25T06:12:02.878Z,18.60
2019-01-25T06:14:39.473Z,18.27
2019-01-25T06:17:15.913Z,18.50
2019-01-25T06:19:52.845Z,18.87
2019-01-25T06:22:29.732Z,19.23
2019-01-25T06:25:06.918Z,17.65
2019-01-25T06:28:00.094Z,19.05
2019-01-25T06:30:37.376Z,19.42
2019-01-25T06:33:14.056Z,17.80
2019-01-25T06:35:50.622Z,18.32
2019-01-25T06:38:27.344Z,17.90
2019-01-25T06:41:03.816Z,17.15
2019-01-25T06:43:40.596Z,17.75
2019-01-25T06:46:17.625Z,18.27
2019-01-25T06:48:54.290Z,18.67
2019-01-25T06:51:32.025Z,17.52
2019-01-25T06:54:08.712Z,18.55
2019-01-25T06:56:45.184Z,18.30
2019-01-25T06:59:27.693Z,17.50
2019-01-25T07:02:20.844Z,17.87
2019-01-25T07:04:57.691Z,17.70
2019-01-25T07:07:36.306Z,17.67
2019-01-25T07:10:16.615Z,18.32
2019-01-25T07:12:53.297Z,18.77
2019-01-25T07:15:30.065Z,18.25
2019-01-25T07:18:07.231Z,18.60
2019-01-25T07:20:43.526Z,18.73
2019-01-25T07:23:20.492Z,17.92
2019-01-25T07:25:57.249Z,18.50
2019-01-25T07:28:34.077Z,20.55
2019-01-25T07:31:11.182Z,20.27
2019-01-25T07:33:48.073Z,19.73
2019-01-25T07:36:24.628Z,21.75
2019-01-25T07:39:01.406Z,20.40
2019-01-25T07:41:39.392Z,19.85
2019-01-25T07:44:15.901Z,19.52
2019-01-25T07:46:52.700Z,19.62
2019-01-25T07:49:29.137Z,19.32
2019-01-25T07:52:07.362Z,19.25
2019-01-25T07:54:44.126Z,18.77
2019-01-25T07:57:20.823Z,16.95
2019-01-25T07:59:57.027Z,18.12
2019-01-25T08:02:33.596Z,18.23
2019-01-25T08:05:10.713Z,16.27
2019-01-25T08:07:47.669Z,16.70
2019-01-25T08:10:24.226Z,18.02
2019-01-25T08:13:02.254Z,17.05
2019-01-25T08:15:38.965Z,15.93
2019-01-25T08:18:15.680Z,16.27
2019-01-25T08:20:52.893Z,17.45
2019-01-25T08:23:29.870Z,15.98
2019-01-25T08:26:06.516Z,16.17
2019-01-25T08:28:43.265Z,16.82
2019-01-25T08:31:20.865Z,16.62
2019-01-25T08:33:57.502Z,15.50
2019-01-25T08:36:34.349Z,16.00
2019-01-25T08:39:14.226Z,16.20
2019-01-25T08:41:51.168Z,16.17
2019-01-25T08:44:28.954Z,18.42
2019-01-25T08:47:05.857Z,16.85
2019-01-25T08:49:42.533Z,16.52
2019-01-25T08:52:19.326Z,16.42
2019-01-25T08:54:56.176Z,17.07
2019-01-25T08:57:32.605Z,16.45
2019-01-25T09:00:11.107Z,17.42
2019-01-25T09:02:48.075Z,16.65
2019-01-25T09:05:25.293Z,15.45
2019-01-25T09:08:01.540Z,16.20
2019-01-25T09:10:38.739Z,16.48
2019-01-25T09:13:17.975Z,15.85
2019-01-25T09:15:54.948Z,17.05
2019-01-25T09:18:31.643Z,16.90
2019-01-25T09:21:08.449Z,16.80
2019-01-25T09:23:45.004Z,16.05
2019-01-25T09:26:21.875Z,15.63
2019-01-25T09:28:58.697Z,14.20
2019-01-25T09:31:35.199Z,15.63
2019-01-25T09:34:12.430Z,15.85
2019-01-25T09:36:49.263Z,16.15
2019-01-25T09:39:26.762Z,15.38
2019-01-25T09:42:03.832Z,15.00
2019-01-25T09:44:40.804Z,15.25
2019-01-25T09:47:17.823Z,14.95
2019-01-25T09:49:55.303Z,15.30
2019-01-25T09:52:32.277Z,15.70
2019-01-25T09:55:09.283Z,14.70
2019-01-25T09:57:46.032Z,15.68
2019-01-25T10:00:29.747Z,16.70
2019-01-25T10:03:06.675Z,14.70
2019-01-25T10:05:43.622Z,14.95
2019-01-25T10:08:20.488Z,16.10
2019-01-25T10:10:56.995Z,15.08
2019-01-25T10:13:34.179Z,15.23
2019-01-25T10:16:10.834Z,15.20
2019-01-25T10:18:48.528Z,15.03
2019-01-25T10:21:25.108Z,16.00
2019-01-25T10:24:02.781Z,16.62
2019-01-25T10:26:40.356Z,18.87
2019-01-25T10:29:20.033Z,18.50
2019-01-25T10:31:55.140Z,19.05
2019-01-25T10:34:32.237Z,21.45
2019-01-25T10:37:10.038Z,20.43
2019-01-25T10:39:46.887Z,20.02
2019-01-25T10:42:23.915Z,24.20
2019-01-25T10:45:04.456Z,26.50
2019-01-25T10:47:39.686Z,26.45
2019-01-25T10:50:16.720Z,30.45
2019-01-25T10:52:53.616Z,27.62
2019-01-25T10:55:30.149Z,24.63
2019-01-25T10:58:07.157Z,25.43
2019-01-25T11:00:43.839Z,26.07
2019-01-25T11:03:21.028Z,25.48
2019-01-25T11:05:57.494Z,28.17
2019-01-25T11:08:34.061Z,25.48
2019-01-25T11:11:10.957Z,24.77
2019-01-25T11:13:47.602Z,23.52
2019-01-25T11:16:24.738Z,22.98
2019-01-25T11:19:01.533Z,21.90
2019-01-25T11:21:38.598Z,21.15
2019-01-25T11:24:15.422Z,20.68
2019-01-25T11:26:51.861Z,20.62
2019-01-25T11:29:31.285Z,19.98
2019-01-25T11:32:08.534Z,19.80
2019-01-25T11:34:44.985Z,20.45
2019-01-25T11:37:22.198Z,20.40
2019-01-25T11:39:58.518Z,20.15
2019-01-25T11:42:35.496Z,23.40
2019-01-25T11:45:12.428Z,26.85
2019-01-25T11:47:49.515Z,23.80
2019-01-25T11:50:26.554Z,27.42
2019-01-25T11:53:03.848Z,29.50
2019-01-25T11:55:40.504Z,33.02
2019-01-25T11:58:17.279Z,30.92
2019-01-25T12:00:53.906Z,34.67
2019-01-25T12:03:30.979Z,33.60
2019-01-25T12:06:08.844Z,34.65
2019-01-25T12:08:46.090Z,32.90
2019-01-25T12:11:22.805Z,34.20
2019-01-25T12:13:59.655Z,33.73
2019-01-25T12:16:36.354Z,33.25
2019-01-25T12:19:13.374Z,32.45
2019-01-25T12:21:49.672Z,30.32
2019-01-25T12:24:26.592Z,30.08
2019-01-25T12:27:04.033Z,32.42
2019-01-25T12:29:40.704Z,32.03
2019-01-25T12:32:17.983Z,32.95
2019-01-25T12:34:54.822Z,36.15
2019-01-25T12:37:31.430Z,33.28
2019-01-25T12:40:08.893Z,37.53
2019-01-25T12:42:46.297Z,37.00
2019-01-25T12:45:25.185Z,36.60
2019-01-25T12:48:02.186Z,37.30
2019-01-25T12:51:09.895Z,38.50
2019-01-25T12:53:47.111Z,35.58
2019-01-25T12:56:24.609Z,37.83
2019-01-25T12:59:00.979Z,39.18
2019-01-25T13:01:37.938Z,36.05
2019-01-25T13:04:14.908Z,36.93
2019-01-25T13:06:52.428Z,36.40
2019-01-25T13:09:29.416Z,38.38
2019-01-25T13:12:10.072Z,40.52
2019-01-25T13:14:47.453Z,44.23
2019-01-25T13:17:24.862Z,44.25
2019-01-25T13:20:02.089Z,47.55
2019-01-25T13:22:39.495Z,48.45
2019-01-25T13:25:18.770Z,47.78
2019-01-25T13:27:55.580Z,51.60
2019-01-25T13:30:33.765Z,47.73
2019-01-25T13:33:11.106Z,47.67
2019-01-25T13:35:48.500Z,49.90
2019-01-25T13:38:25.070Z,49.60
2019-01-25T13:41:01.966Z,49.03
2019-01-25T13:43:39.341Z,47.95
2019-01-25T13:46:17.147Z,50.20
2019-01-25T13:48:53.610Z,48.10
2019-01-25T13:51:30.213Z,51.48
2019-01-25T13:54:09.637Z,49.18
2019-01-25T13:56:49.440Z,50.52
2019-01-25T13:59:26.454Z,49.83
2019-01-25T14:02:03.721Z,54.55
2019-01-25T14:04:40.132Z,52.62
2019-01-25T14:07:21.032Z,54.83
2019-01-25T14:09:56.261Z,56.08
2019-01-25T14:12:33.398Z,55.40
2019-01-25T14:15:14.038Z,57.35
2019-01-25T14:17:50.590Z,55.48
2019-01-25T14:20:29.909Z,59.98
2019-01-25T14:23:06.823Z,58.20
2019-01-25T14:25:45.426Z,61.33
2019-01-25T14:28:22.661Z,60.35
2019-01-25T14:31:01.200Z,60.40
2019-01-25T14:33:38.217Z,62.10
2019-01-25T14:36:15.441Z,62.33
2019-01-25T14:38:53.637Z,61.50
2019-01-25T14:41:34.880Z,62.08
2019-01-25T14:44:12.082Z,61.45
2019-01-25T14:46:50.108Z,66.82
2019-01-25T14:49:27.238Z,62.25
2019-01-25T14:52:03.827Z,76.47
2019-01-25T14:54:41.129Z,88.10
2019-01-25T14:57:18.376Z,93.40
2019-01-25T14:59:55.172Z,99.13
2019-01-25T15:02:33.169Z,80.00
2019-01-25T15:05:12.442Z,70.20
2019-01-25T15:07:49.966Z,63.75
2019-01-25T15:10:27.660Z,64.47
2019-01-25T15:13:05.272Z,61.02
2019-01-25T15:15:44.893Z,60.98
2019-01-25T15:18:21.486Z,59.18
2019-01-25T15:20:58.036Z,60.12
2019-01-25T15:23:34.943Z,62.00
2019-01-25T15:26:11.221Z,58.15
2019-01-25T15:28:47.833Z,71.87
2019-01-25T15:31:25.040Z,65.87
2019-01-25T15:34:02.143Z,75.72
2019-01-25T15:36:39.047Z,79.22
2019-01-25T15:39:16.681Z,87.12
2019-01-25T15:41:53.712Z,92.25
2019-01-25T15:44:30.426Z,84.17
2019-01-25T15:47:07.179Z,86.70
2019-01-25T15:49:44.124Z,83.12
2019-01-25T15:52:20.770Z,94.47
2019-01-25T15:54:57.744Z,83.62
2019-01-25T15:57:34.410Z,84.58
2019-01-25T16:00:17.065Z,79.82
2019-01-25T16:02:53.890Z,75.62
2019-01-25T16:05:31.299Z,71.77
2019-01-25T16:08:08.715Z,67.12
2019-01-25T16:10:45.540Z,62.15
2019-01-25T16:13:22.016Z,59.65
2019-01-25T16:15:58.508Z,55.90
2019-01-25T16:18:35.772Z,51.18
2019-01-25T16:21:12.820Z,49.38
2019-01-25T16:23:49.875Z,47.45
2019-01-25T16:26:26.559Z,47.75
2019-01-25T16:29:03.864Z,39.15
2019-01-25T16:31:40.479Z,34.10
2019-01-25T16:34:17.666Z,32.90
2019-01-25T16:36:54.964Z,30.92
2019-01-25T16:39:31.747Z,30.97
2019-01-25T16:42:09.135Z,29.37
2019-01-25T16:44:46.791Z,29.45
2019-01-25T16:47:24.373Z,29.92
2019-01-25T16:50:01.547Z,28.52
2019-01-25T16:52:38.670Z,29.15
2019-01-25T16:55:16.344Z,29.75
2019-01-25T16:57:53.028Z,30.08
2019-01-25T17:00:35.849Z,29.92
2019-01-25T17:03:13.721Z,29.75
2019-01-25T17:05:53.964Z,28.25
2019-01-25T17:08:31.619Z,29.25
2019-01-25T17:11:08.988Z,29.37
2019-01-25T17:13:45.639Z,29.15
2019-01-25T17:16:22.338Z,28.35
2019-01-25T17:18:59.268Z,28.02
2019-01-25T17:21:36.212Z,27.17
2019-01-25T17:24:14.221Z,26.12
2019-01-25T17:26:51.022Z,27.30
2019-01-25T17:29:28.117Z,26.68
2019-01-25T17:32:05.603Z,26.50
2019-01-25T17:34:42.398Z,25.17
2019-01-25T17:37:19.303Z,26.02
2019-01-25T17:39:56.506Z,26.48
2019-01-25T17:42:33.987Z,24.57
2019-01-25T17:45:11.703Z,24.77
2019-01-25T17:47:48.283Z,25.00
2019-01-25T17:50:25.341Z,23.65
2019-01-25T17:53:02.206Z,22.98
2019-01-25T17:55:39.320Z,22.95
2019-01-25T17:58:18.783Z,22.67
2019-01-25T18:00:59.625Z,23.07
2019-01-25T18:03:36.636Z,22.32
2019-01-25T18:06:13.138Z,22.32
2019-01-25T18:08:49.999Z,23.10
2019-01-25T18:11:26.657Z,22.82
2019-01-25T18:14:03.299Z,22.58
2019-01-25T18:16:39.654Z,21.07
2019-01-25T18:19:17.306Z,22.45
2019-01-25T18:21:54.149Z,20.82
2019-01-25T18:24:31.421Z,21.62
2019-01-25T18:27:08.559Z,20.90
2019-01-25T18:29:54.473Z,20.55
2019-01-25T18:32:31.486Z,20.00
2019-01-25T18:35:08.274Z,19.42
2019-01-25T18:37:45.981Z,19.25
2019-01-25T18:40:22.743Z,18.92
2019-01-25T18:42:59.678Z,19.20
2019-01-25T18:45:35.853Z,19.00
2019-01-25T18:48:14.352Z,17.98
2019-01-25T18:50:50.896Z,18.90
2019-01-25T18:53:27.835Z,18.48
2019-01-25T18:56:04.644Z,17.98
2019-01-25T18:58:41.866Z,18.57
2019-01-25T19:01:18.660Z,17.70
2019-01-25T19:03:55.682Z,17.45
2019-01-25T19:06:32.549Z,17.00
2019-01-25T19:09:11.813Z,18.55
2019-01-25T19:11:48.084Z,17.50
2019-01-25T19:14:25.409Z,17.20
2019-01-25T19:17:02.301Z,17.73
2019-01-25T19:19:42.642Z,17.12
2019-01-25T19:22:19.430Z,16.45
2019-01-25T19:24:56.380Z,17.67
2019-01-25T19:27:33.172Z,17.35
2019-01-25T19:30:14.514Z,17.15
2019-01-25T19:32:50.995Z,16.07
2019-01-25T19:35:27.864Z,16.37
2019-01-25T19:38:04.901Z,16.42
2019-01-25T19:40:41.836Z,16.48
2019-01-25T19:43:18.439Z,17.20
2019-01-25T19:45:55.239Z,16.27
2019-01-25T19:48:32.556Z,16.37
2019-01-25T19:51:09.256Z,16.00
2019-01-25T19:53:45.868Z,17.17
2019-01-25T19:56:22.720Z,16.80
2019-01-25T19:58:59.367Z,16.55
2019-01-25T20:01:36.105Z,15.93
2019-01-25T20:04:12.954Z,16.27
2019-01-25T20:06:49.805Z,16.52
2019-01-25T20:09:26.319Z,16.45
2019-01-25T20:12:03.439Z,15.78
2019-01-25T20:14:40.446Z,17.32
2019-01-25T20:17:16.928Z,18.00
2019-01-25T20:19:54.152Z,17.30
2019-01-25T20:22:31.160Z,16.97
2019-01-25T20:25:07.882Z,18.37
2019-01-25T20:27:44.378Z,18.40
2019-01-25T20:30:32.557Z,17.48
2019-01-25T20:33:09.581Z,17.82
2019-01-25T20:35:47.408Z,17.52
2019-01-25T20:38:24.036Z,17.07
2019-01-25T20:41:01.098Z,16.62
2019-01-25T20:43:38.044Z,16.15
2019-01-25T20:46:14.962Z,16.35
2019-01-25T20:48:51.597Z,16.85
2019-01-25T20:51:28.876Z,15.85
2019-01-25T20:54:05.527Z,17.17
2019-01-25T20:56:42.110Z,16.20
2019-01-25T20:59:19.246Z,15.83
2019-01-25T21:01:55.478Z,16.57
2019-01-25T21:04:32.524Z,17.00
2019-01-25T21:07:09.325Z,16.55
2019-01-25T21:09:46.078Z,16.30
2019-01-25T21:12:22.740Z,16.15
2019-01-25T21:15:00.338Z,16.70
2019-01-25T21:17:37.036Z,16.85
2019-01-25T21:20:21.060Z,16.93
2019-01-25T21:22:57.621Z,17.42
2019-01-25T21:25:34.400Z,16.52
2019-01-25T21:28:11.575Z,16.20
2019-01-25T21:30:47.841Z,17.27
2019-01-25T21:33:24.439Z,16.37
2019-01-25T21:36:01.373Z,15.43
2019-01-25T21:38:38.165Z,16.42
2019-01-25T21:41:14.615Z,16.27
2019-01-25T21:43:51.694Z,16.80
2019-01-25T21:46:28.578Z,16.50
2019-01-25T21:49:05.372Z,16.80
2019-01-25T21:51:41.601Z,15.63
2019-01-25T21:54:18.863Z,17.07
2019-01-25T21:56:55.402Z,16.95
2019-01-25T21:59:32.280Z,17.40
2019-01-25T22:02:08.872Z,17.55
2019-01-25T22:04:45.909Z,16.90
2019-01-25T22:07:23.012Z,17.65
2019-01-25T22:10:00.596Z,17.20
2019-01-25T22:12:39.181Z,16.82
2019-01-25T22:15:16.818Z,17.15
2019-01-25T22:17:53.517Z,16.52
2019-01-25T22:20:31.855Z,17.20
2019-01-25T22:23:09.103Z,17.60
2019-01-25T22:25:46.486Z,16.80
2019-01-25T22:28:23.275Z,17.75
2019-01-25T22:31:00.132Z,17.00
2019-01-25T22:33:36.858Z,18.12
2019-01-25T22:36:13.860Z,18.02
2019-01-25T22:38:51.487Z,18.17
2019-01-25T22:41:28.660Z,17.48
2019-01-25T22:44:06.189Z,17.92
2019-01-25T22:46:42.783Z,16.60
2019-01-25T22:49:19.562Z,16.97
2019-01-25T22:51:56.093Z,17.12
2019-01-25T22:54:33.345Z,18.65
2019-01-25T22:57:10.153Z,21.23
2019-01-25T22:59:47.149Z,18.67
2019-01-25T23:02:23.847Z,20.43
2019-01-25T23:05:34.466Z,19.32
2019-01-25T23:08:11.163Z,19.55
2019-01-25T23:10:48.279Z,19.30
2019-01-25T23:13:25.101Z,18.10
2019-01-25T23:16:06.318Z,19.37
2019-01-25T23:18:39.610Z,19.45
2019-01-25T23:21:16.614Z,20.27
2019-01-25T23:23:53.365Z,20.12
2019-01-25T23:26:29.817Z,20.05
2019-01-25T23:29:06.574Z,19.98
2019-01-25T23:31:44.318Z,20.20
2019-01-25T23:34:21.281Z,22.60
2019-01-25T23:36:57.806Z,20.62
2019-01-25T23:39:34.654Z,19.87
2019-01-25T23:42:11.534Z,20.33
2019-01-25T23:44:48.207Z,19.95
2019-01-25T23:47:24.963Z,22.00
2019-01-25T23:50:01.870Z,20.45
2019-01-25T23:52:38.598Z,20.43
2019-01-25T23:55:15.643Z,21.02
2019-01-25T23:57:52.462Z,21.05
